Time,TemperatureF,DewpointF,PressureIn,WindDirection,WindDirectionDegrees,WindSpeedMPH,WindSpeedGustMPH,Humidity,HourlyPrecipIn,Conditions,Clouds,dailyrainin,SolarRadiationWatts/m^2,SoftwareType,DateUTC
2013-04-22 00:11:00,50.8,42.0,29.99,ENE,69,0.0,9.0,73,0.00,,,0.00,0,weatherlink.com 1.10,2013-04-22 05:11:00,
2013-04-22 00:26:00,50.2,42.0,30.00,NNW,338,0.0,0.0,74,0.00,,,0.00,0,weatherlink.com 1.10,2013-04-22 05:26:00,
2013-04-22 00:41:00,49.9,43.0,30.01,NE,49,0.0,0.0,76,0.00,,,0.00,0,weatherlink.com 1.10,2013-04-22 05:41:00,
2013-04-22 00:56:00,49.5,44.0,30.04,East,79,5.0,7.0,80,0.00,,,0.00,0,weatherlink.com 1.10,2013-04-22 05:56:00,
2013-04-22 01:11:00,48.9,44.0,30.05,SW,236,0.0,0.0,83,0.00,,,0.00,0,weatherlink.com 1.10,2013-04-22 06:11:00,
2013-04-22 01:26:00,47.7,44.0,30.06,West,263,0.0,0.0,87,0.01,,,0.01,0,weatherlink.com 1.10,2013-04-22 06:26:00,
2013-04-22 01:42:00,47.2,45.0,30.05,West,263,0.0,0.0,90,0.04,,,0.04,0,weatherlink.com 1.10,2013-04-22 06:42:00,
2013-04-22 01:57:00,46.9,45.0,30.03,NE,39,0.0,1.0,92,0.08,,,0.08,0,weatherlink.com 1.10,2013-04-22 06:57:00,
2013-04-22 02:12:00,46.6,44.0,29.99,NE,55,6.0,8.0,92,0.09,,,0.09,0,weatherlink.com 1.10,2013-04-22 07:12:00,
2013-04-22 02:27:00,46.0,44.0,29.96,NE,46,4.0,9.0,92,0.09,,,0.10,0,weatherlink.com 1.10,2013-04-22 07:27:00,
2013-04-22 02:42:00,45.2,43.0,29.94,ENE,61,8.0,10.0,92,0.06,,,0.10,0,weatherlink.com 1.10,2013-04-22 07:42:00,
2013-04-22 02:57:00,44.5,43.0,29.94,ENE,61,7.0,12.0,93,0.02,,,0.10,0,weatherlink.com 1.10,2013-04-22 07:57:00,
2013-04-22 03:12:00,44.0,42.0,29.94,ENE,68,4.0,10.0,93,0.01,,,0.10,0,weatherlink.com 1.10,2013-04-22 08:12:00,
2013-04-22 03:27:00,44.0,42.0,29.92,ENE,64,10.0,13.0,94,0.00,,,0.10,0,weatherlink.com 1.10,2013-04-22 08:27:00,
2013-04-22 03:42:00,43.4,42.0,29.92,ENE,74,13.0,18.0,94,0.00,,,0.10,0,weatherlink.com 1.10,2013-04-22 08:42:00,
2013-04-22 03:57:00,43.2,42.0,29.91,East,82,19.0,19.0,94,0.00,,,0.10,0,weatherlink.com 1.10,2013-04-22 08:57:00,
2013-04-22 04:12:00,43.2,42.0,29.90,ENE,78,14.0,19.0,95,0.00,,,0.10,0,weatherlink.com 1.10,2013-04-22 09:12:00,
2013-04-22 04:27:00,43.2,42.0,29.89,East,87,11.0,16.0,95,0.00,,,0.10,0,weatherlink.com 1.10,2013-04-22 09:27:00,
2013-04-22 04:42:00,42.5,41.0,29.89,East,84,15.0,23.0,95,0.00,,,0.10,0,weatherlink.com 1.10,2013-04-22 09:42:00,
2013-04-22 04:57:00,42.4,41.0,29.89,ENE,66,9.0,18.0,95,0.00,,,0.10,0,weatherlink.com 1.10,2013-04-22 09:57:00,
2013-04-22 05:12:00,42.3,41.0,29.88,ENE,64,10.0,15.0,95,0.00,,,0.10,0,weatherlink.com 1.10,2013-04-22 10:12:00,
2013-04-22 05:27:00,42.3,41.0,29.88,ENE,76,5.0,14.0,95,0.00,,,0.10,0,weatherlink.com 1.10,2013-04-22 10:27:00,
2013-04-22 05:42:00,42.4,41.0,29.87,ESE,115,3.0,12.0,96,0.00,,,0.10,0,weatherlink.com 1.10,2013-04-22 10:42:00,
2013-04-22 05:57:00,42.3,41.0,29.87,East,82,9.0,14.0,96,0.00,,,0.10,0,weatherlink.com 1.10,2013-04-22 10:57:00,
2013-04-22 06:12:00,42.4,41.0,29.86,East,95,7.0,12.0,96,0.00,,,0.10,0,weatherlink.com 1.10,2013-04-22 11:12:00,
2013-04-22 06:27:00,42.4,41.0,29.86,East,82,7.0,9.0,96,0.00,,,0.10,0,weatherlink.com 1.10,2013-04-22 11:27:00,
2013-04-22 06:42:00,42.5,42.0,29.85,East,94,8.0,10.0,96,0.00,,,0.10,0,weatherlink.com 1.10,2013-04-22 11:42:00,
2013-04-22 06:57:00,42.7,42.0,29.88,North,5,0.0,8.0,96,0.00,,,0.10,0,weatherlink.com 1.10,2013-04-22 11:57:00,
2013-04-22 07:12:00,42.7,42.0,29.86,ENE,61,10.0,12.0,96,0.00,,,0.10,0,weatherlink.com 1.10,2013-04-22 12:12:00,
2013-04-22 07:27:00,42.9,42.0,29.86,ENE,78,0.0,0.0,96,0.00,,,0.10,7,weatherlink.com 1.10,2013-04-22 12:27:00,
2013-04-22 07:42:00,42.9,42.0,29.85,ENE,67,5.0,10.0,96,0.00,,,0.10,12,weatherlink.com 1.10,2013-04-22 12:42:00,
2013-04-22 07:57:00,43.1,42.0,29.87,ENE,69,0.0,0.0,96,0.00,,,0.10,5,weatherlink.com 1.10,2013-04-22 12:57:00,
2013-04-22 08:12:00,43.3,42.0,29.88,NW,308,0.0,1.0,96,0.00,,,0.10,0,weatherlink.com 1.10,2013-04-22 13:12:00,
2013-04-22 08:27:00,43.1,42.0,29.88,NW,316,0.0,3.0,96,0.00,,,0.10,0,weatherlink.com 1.10,2013-04-22 13:27:00,
2013-04-22 08:42:00,43.1,42.0,29.87,ENE,62,0.0,5.0,96,0.04,,,0.14,12,weatherlink.com 1.10,2013-04-22 13:42:00,
2013-04-22 08:57:00,43.2,42.0,29.88,NNE,25,0.0,0.0,96,0.05,,,0.15,5,weatherlink.com 1.10,2013-04-22 13:57:00,
2013-04-22 09:12:00,43.3,42.0,29.87,NE,56,0.0,0.0,96,0.06,,,0.16,11,weatherlink.com 1.10,2013-04-22 14:12:00,
2013-04-22 09:27:00,43.6,43.0,29.86,ENE,57,0.0,5.0,96,0.07,,,0.17,19,weatherlink.com 1.10,2013-04-22 14:27:00,
2013-04-22 09:43:00,44.0,43.0,29.86,NE,40,0.0,8.0,97,0.03,,,0.17,25,weatherlink.com 1.10,2013-04-22 14:43:00,
2013-04-22 09:58:00,44.5,44.0,29.87,ENE,69,0.0,7.0,96,0.02,,,0.17,16,weatherlink.com 1.10,2013-04-22 14:58:00,
2013-04-22 10:13:00,44.5,44.0,29.90,NW,317,4.0,4.0,97,0.03,,,0.19,9,weatherlink.com 1.10,2013-04-22 15:13:00,
2013-04-22 10:28:00,44.1,43.0,29.89,ENE,60,0.0,0.0,97,0.07,,,0.24,23,weatherlink.com 1.10,2013-04-22 15:28:00,
2013-04-22 10:43:00,44.2,43.0,29.89,NNW,340,0.0,1.0,96,0.11,,,0.28,25,weatherlink.com 1.10,2013-04-22 15:43:00,
2013-04-22 10:58:00,44.6,44.0,29.90,NNW,340,0.0,0.0,97,0.13,,,0.30,25,weatherlink.com 1.10,2013-04-22 15:58:00,
2013-04-22 11:13:00,44.3,44.0,29.89,ENE,59,0.0,5.0,97,0.10,,,0.30,86,weatherlink.com 1.10,2013-04-22 16:13:00,
2013-04-22 11:28:00,44.4,43.0,29.90,NE,37,2.0,8.0,96,0.06,,,0.30,121,weatherlink.com 1.10,2013-04-22 16:28:00,
2013-04-22 11:43:00,44.4,44.0,29.89,ENE,61,3.0,8.0,97,0.01,,,0.30,230,weatherlink.com 1.10,2013-04-22 16:43:00,
2013-04-22 11:58:00,46.0,45.0,29.90,NE,49,0.0,12.0,97,0.00,,,0.30,295,weatherlink.com 1.10,2013-04-22 16:58:00,
2013-04-22 12:13:00,45.4,45.0,29.91,NNE,25,3.0,11.0,97,0.00,,,0.30,134,weatherlink.com 1.10,2013-04-22 17:13:00,
2013-04-22 12:28:00,43.7,43.0,29.93,NE,42,4.0,14.0,96,0.00,,,0.30,123,weatherlink.com 1.10,2013-04-22 17:28:00,
2013-04-22 12:43:00,42.3,41.0,29.94,NNE,31,7.0,14.0,96,0.00,,,0.30,160,weatherlink.com 1.10,2013-04-22 17:43:00,
2013-04-22 12:58:00,41.3,40.0,29.95,NNE,14,5.0,16.0,96,0.00,,,0.30,128,weatherlink.com 1.10,2013-04-22 17:58:00,
2013-04-22 13:13:00,38.3,37.0,29.96,NNE,15,3.0,15.0,96,0.00,,,0.30,142,weatherlink.com 1.10,2013-04-22 18:13:00,
2013-04-22 13:28:00,37.3,36.0,29.97,NNE,20,4.0,19.0,96,0.00,,,0.30,185,weatherlink.com 1.10,2013-04-22 18:28:00,
2013-04-22 13:43:00,36.5,36.0,29.99,NNW,343,5.0,13.0,96,0.00,,,0.30,95,weatherlink.com 1.10,2013-04-22 18:43:00,
2013-04-22 13:58:00,35.7,35.0,30.00,WSW,254,4.0,22.0,96,0.00,,,0.30,125,weatherlink.com 1.10,2013-04-22 18:58:00,
2013-04-22 14:13:00,34.8,34.0,30.02,NE,49,10.0,17.0,96,0.00,,,0.30,109,weatherlink.com 1.10,2013-04-22 19:13:00,
2013-04-22 14:28:00,34.2,33.0,30.04,NNE,28,3.0,17.0,96,0.00,,,0.30,107,weatherlink.com 1.10,2013-04-22 19:28:00,
2013-04-22 14:43:00,33.9,33.0,30.05,NE,34,4.0,13.0,96,0.00,,,0.30,107,weatherlink.com 1.10,2013-04-22 19:43:00,
2013-04-22 14:58:00,33.2,32.0,30.06,NNE,23,3.0,18.0,95,0.00,,,0.30,139,weatherlink.com 1.10,2013-04-22 19:58:00,
2013-04-22 15:13:00,32.9,32.0,30.07,ENE,60,11.0,13.0,95,0.00,,,0.30,156,weatherlink.com 1.10,2013-04-22 20:13:00,
2013-04-22 15:28:00,32.6,31.0,30.08,North,349,7.0,17.0,95,0.00,,,0.30,135,weatherlink.com 1.10,2013-04-22 20:28:00,
2013-04-22 15:43:00,32.3,31.0,30.09,NNE,16,8.0,15.0,94,0.00,,,0.30,113,weatherlink.com 1.10,2013-04-22 20:43:00,
2013-04-22 15:58:00,32.3,31.0,30.11,NNE,32,2.0,13.0,94,0.00,,,0.30,76,weatherlink.com 1.10,2013-04-22 20:58:00,
2013-04-22 16:13:00,32.6,31.0,30.11,ENE,74,5.0,13.0,94,0.00,,,0.30,127,weatherlink.com 1.10,2013-04-22 21:13:00,
2013-04-22 16:28:00,33.3,32.0,30.12,NNE,24,3.0,12.0,93,0.00,,,0.30,100,weatherlink.com 1.10,2013-04-22 21:28:00,
2013-04-22 16:43:00,33.8,32.0,30.10,NE,40,6.0,13.0,91,0.00,,,0.30,144,weatherlink.com 1.10,2013-04-22 21:43:00,
2013-04-22 16:58:00,34.0,31.0,30.12,North,355,0.0,12.0,90,0.00,,,0.30,81,weatherlink.com 1.10,2013-04-22 21:58:00,
2013-04-22 17:13:00,34.2,31.0,30.14,North,355,3.0,12.0,89,0.00,,,0.30,62,weatherlink.com 1.10,2013-04-22 22:13:00,
2013-04-22 17:28:00,34.2,31.0,30.16,ENE,63,4.0,13.0,88,0.00,,,0.30,69,weatherlink.com 1.10,2013-04-22 22:28:00,
2013-04-22 17:44:00,34.0,31.0,30.15,ENE,59,5.0,12.0,87,0.00,,,0.30,105,weatherlink.com 1.10,2013-04-22 22:44:00,
2013-04-22 17:59:00,33.8,30.0,30.14,NNE,13,9.0,13.0,87,0.00,,,0.30,120,weatherlink.com 1.10,2013-04-22 22:59:00,
2013-04-22 18:14:00,33.2,29.0,30.16,NE,42,4.0,15.0,85,0.00,,,0.30,67,weatherlink.com 1.10,2013-04-22 23:14:00,
2013-04-22 18:29:00,32.9,29.0,30.18,NE,55,7.0,16.0,85,0.00,,,0.30,35,weatherlink.com 1.10,2013-04-22 23:29:00,
2013-04-22 18:44:00,32.1,29.0,30.20,West,259,0.0,15.0,87,0.00,,,0.30,23,weatherlink.com 1.10,2013-04-22 23:44:00,
2013-04-22 18:59:00,31.6,28.0,30.20,NE,40,4.0,14.0,87,0.00,,,0.30,39,weatherlink.com 1.10,2013-04-22 23:59:00,
2013-04-22 19:14:00,31.6,28.0,30.20,NE,36,2.0,11.0,87,0.00,,,0.30,35,weatherlink.com 1.10,2013-04-23 00:14:00,
2013-04-22 19:29:00,31.5,28.0,30.21,NNE,28,5.0,14.0,86,0.00,,,0.30,16,weatherlink.com 1.10,2013-04-23 00:29:00,
2013-04-22 19:44:00,31.4,28.0,30.20,NE,50,5.0,14.0,86,0.00,,,0.30,14,weatherlink.com 1.10,2013-04-23 00:44:00,
2013-04-22 19:59:00,31.1,27.0,30.21,NE,47,7.0,14.0,85,0.00,,,0.30,5,weatherlink.com 1.10,2013-04-23 00:59:00,
2013-04-22 20:14:00,31.0,27.0,30.23,ENE,74,7.0,13.0,86,0.00,,,0.30,0,weatherlink.com 1.10,2013-04-23 01:14:00,
2013-04-22 20:29:00,31.0,27.0,30.23,ENE,69,4.0,15.0,86,0.00,,,0.30,0,weatherlink.com 1.10,2013-04-23 01:29:00,
2013-04-22 20:44:00,31.0,27.0,30.26,NE,36,3.0,10.0,86,0.00,,,0.30,0,weatherlink.com 1.10,2013-04-23 01:44:00,
2013-04-22 20:59:00,31.1,27.0,30.28,NE,42,3.0,6.0,86,0.00,,,0.30,0,weatherlink.com 1.10,2013-04-23 01:59:00,
2013-04-22 21:14:00,30.9,27.0,30.29,NW,321,15.0,16.0,85,0.00,,,0.30,0,weatherlink.com 1.10,2013-04-23 02:14:00,
2013-04-22 21:29:00,30.8,27.0,30.30,ENE,61,4.0,14.0,85,0.00,,,0.30,0,weatherlink.com 1.10,2013-04-23 02:29:00,
2013-04-22 21:44:00,30.6,27.0,30.30,ENE,58,5.0,15.0,85,0.00,,,0.30,0,weatherlink.com 1.10,2013-04-23 02:44:00,
2013-04-22 21:59:00,30.7,27.0,30.36,NW,316,1.0,11.0,85,0.00,,,0.30,0,weatherlink.com 1.10,2013-04-23 02:59:00,
2013-04-22 22:14:00,30.5,26.0,30.29,ENE,59,11.0,13.0,84,0.00,,,0.30,0,weatherlink.com 1.10,2013-04-23 03:14:00,
2013-04-22 22:29:00,30.3,26.0,30.31,North,355,9.0,14.0,84,0.00,,,0.30,0,weatherlink.com 1.10,2013-04-23 03:29:00,
2013-04-22 22:44:00,30.4,26.0,30.36,NNW,346,0.0,14.0,84,0.00,,,0.30,0,weatherlink.com 1.10,2013-04-23 03:44:00,
2013-04-22 22:59:00,29.9,27.0,30.33,NE,36,1.0,15.0,87,0.00,,,0.30,0,weatherlink.com 1.10,2013-04-23 03:59:00,
2013-04-22 23:14:00,29.3,27.0,30.35,NW,320,3.0,14.0,90,0.00,,,0.30,0,weatherlink.com 1.10,2013-04-23 04:14:00,
2013-04-22 23:29:00,29.4,27.0,30.34,NNE,17,4.0,13.0,90,0.00,,,0.30,0,weatherlink.com 1.10,2013-04-23 04:29:00,
2013-04-22 23:44:00,29.2,27.0,30.34,ENE,57,5.0,15.0,90,0.00,,,0.30,0,weatherlink.com 1.10,2013-04-23 04:44:00,
2013-04-22 23:59:00,28.8,27.0,30.35,NE,37,0.0,13.0,91,0.00,,,0.30,0,weatherlink.com 1.10,2013-04-23 04:59:00,